createdAt,value
2018-10-03T00:00:54.655Z,97277.22
2018-10-03T00:03:22.934Z,97290.35
2018-10-03T00:05:51.235Z,97268.66
2018-10-03T00:08:19.621Z,97274.24
2018-10-03T00:10:47.993Z,97272.38
2018-10-03T00:13:16.291Z,97282.06
2018-10-03T00:15:44.608Z,97285.23
2018-10-03T00:18:12.903Z,97277.22
2018-10-03T00:20:41.308Z,97271.55
2018-10-03T00:23:09.589Z,97283.55
2018-10-03T00:25:37.898Z,97278.73
2018-10-03T00:28:06.203Z,97284.70
2018-10-03T00:30:34.623Z,97287.11
2018-10-03T00:33:02.955Z,97290.55
2018-10-03T00:35:31.247Z,97282.20
2018-10-03T00:37:59.551Z,97285.69
2018-10-03T00:40:27.881Z,97285.46
2018-10-03T00:42:56.278Z,97291.81
2018-10-03T00:45:24.591Z,97286.69
2018-10-03T00:47:53.047Z,97285.34
2018-10-03T00:50:21.359Z,97282.61
2018-10-03T00:52:49.671Z,97286.38
2018-10-03T00:55:18.015Z,97293.11
2018-10-03T00:57:46.296Z,97287.98
2018-10-03T01:00:14.635Z,97298.00
2018-10-03T01:02:42.959Z,97305.54
2018-10-03T01:05:11.272Z,97302.39
2018-10-03T01:07:39.583Z,97298.94
2018-10-03T01:10:07.917Z,97309.98
2018-10-03T01:12:36.213Z,97303.55
2018-10-03T01:15:04.535Z,97312.97
2018-10-03T01:17:32.823Z,97306.02
2018-10-03T01:20:01.152Z,97312.44
2018-10-03T01:22:29.434Z,97307.58
2018-10-03T01:24:57.739Z,97299.23
2018-10-03T01:27:28.656Z,97302.16
2018-10-03T01:29:57.640Z,97302.67
2018-10-03T01:32:25.919Z,97296.49
2018-10-03T01:34:54.255Z,97294.63
2018-10-03T01:37:22.551Z,97297.89
2018-10-03T01:39:51.235Z,97301.41
2018-10-03T01:42:19.528Z,97301.74
2018-10-03T01:44:47.867Z,97303.09
2018-10-03T01:47:16.187Z,97304.44
2018-10-03T01:49:44.502Z,97312.27
2018-10-03T01:52:12.799Z,97307.47
2018-10-03T01:54:41.094Z,97303.73
2018-10-03T01:57:09.575Z,97307.64
2018-10-03T01:59:37.987Z,97311.09
2018-10-03T02:02:06.712Z,97311.91
2018-10-03T02:04:35.471Z,97311.95
2018-10-03T02:07:03.836Z,97312.15
2018-10-03T02:09:32.158Z,97310.33
2018-10-03T02:12:00.479Z,97304.38
2018-10-03T02:14:28.755Z,97306.23
2018-10-03T02:16:57.064Z,97306.72
2018-10-03T02:19:25.344Z,97309.15
2018-10-03T02:21:53.654Z,97307.58
2018-10-03T02:24:21.939Z,97314.30
2018-10-03T02:26:50.267Z,97321.84
2018-10-03T02:29:18.591Z,97320.43
2018-10-03T02:31:47.124Z,97324.05
2018-10-03T02:34:15.435Z,97328.33
2018-10-03T02:36:43.736Z,97329.66
2018-10-03T02:39:12.059Z,97324.64
2018-10-03T02:41:40.379Z,97329.67
2018-10-03T02:44:08.660Z,97333.03
2018-10-03T02:46:36.983Z,97324.57
2018-10-03T02:49:05.276Z,97327.52
2018-10-03T02:51:33.675Z,97325.70
2018-10-03T02:54:01.972Z,97329.67
2018-10-03T02:56:30.299Z,97339.64
2018-10-03T02:58:58.591Z,97336.89
2018-10-03T03:01:27.137Z,97332.36
2018-10-03T03:03:55.392Z,97342.84
2018-10-03T03:06:23.720Z,97340.16
2018-10-03T03:08:52.011Z,97339.59
2018-10-03T03:11:20.331Z,97335.55
2018-10-03T03:13:48.625Z,97337.12
2018-10-03T03:16:16.943Z,97343.02
2018-10-03T03:18:45.256Z,97349.27
2018-10-03T03:21:13.560Z,97349.20
2018-10-03T03:23:41.867Z,97341.78
2018-10-03T03:26:10.179Z,97343.13
2018-10-03T03:28:38.483Z,97349.01
2018-10-03T03:31:06.932Z,97355.20
2018-10-03T03:33:35.237Z,97361.91
2018-10-03T03:36:03.547Z,97355.14
2018-10-03T03:38:31.843Z,97363.41
2018-10-03T03:41:00.157Z,97357.78
2018-10-03T03:43:28.452Z,97360.68
2018-10-03T03:45:57.027Z,97357.18
2018-10-03T03:48:25.315Z,97363.34
2018-10-03T03:50:53.619Z,97372.37
2018-10-03T03:53:22.188Z,97376.69
2018-10-03T03:55:51.471Z,97376.11
2018-10-03T03:58:19.750Z,97384.74
2018-10-03T04:00:48.147Z,97389.69
2018-10-03T04:03:16.500Z,97382.06
2018-10-03T04:05:44.812Z,97390.66
2018-10-03T04:08:13.091Z,97401.09
2018-10-03T04:10:41.378Z,97398.09
2018-10-03T04:13:09.687Z,97409.72
2018-10-03T04:15:38.020Z,97415.54
2018-10-03T04:18:06.307Z,97413.91
2018-10-03T04:20:34.612Z,97411.22
2018-10-03T04:23:02.915Z,97415.33
2018-10-03T04:25:31.195Z,97410.34
2018-10-03T04:27:59.495Z,97410.85
2018-10-03T04:30:27.779Z,97409.45
2018-10-03T04:32:56.094Z,97412.03
2018-10-03T04:35:24.450Z,97406.09
2018-10-03T04:37:52.735Z,97408.06
2018-10-03T04:40:21.024Z,97411.20
2018-10-03T04:42:49.335Z,97419.84
2018-10-03T04:45:17.646Z,97415.00
2018-10-03T04:47:46.011Z,97420.39
2018-10-03T04:50:14.291Z,97430.07
2018-10-03T04:52:42.635Z,97426.66
2018-10-03T04:55:10.935Z,97429.20
2018-10-03T04:57:39.455Z,97437.50
2018-10-03T05:00:07.767Z,97439.19
2018-10-03T05:02:36.103Z,97444.64
2018-10-03T05:05:05.590Z,97441.88
2018-10-03T05:07:33.903Z,97445.20
2018-10-03T05:10:02.224Z,97439.17
2018-10-03T05:12:30.828Z,97440.80
2018-10-03T05:14:59.358Z,97447.48
2018-10-03T05:17:27.703Z,97453.02
2018-10-03T05:19:56.684Z,97450.41
2018-10-03T05:22:25.007Z,97446.42
2018-10-03T05:24:53.291Z,97447.76
2018-10-03T05:27:21.600Z,97453.55
2018-10-03T05:29:49.876Z,97452.16
2018-10-03T05:32:18.203Z,97455.42
2018-10-03T05:34:46.483Z,97456.88
2018-10-03T05:37:14.787Z,97459.01
2018-10-03T05:39:43.109Z,97476.33
2018-10-03T05:42:11.399Z,97473.88
2018-10-03T05:44:39.687Z,97476.46
2018-10-03T05:47:07.996Z,97482.88
2018-10-03T05:49:36.300Z,97490.56
2018-10-03T05:52:04.601Z,97496.38
2018-10-03T05:54:32.893Z,97501.25
2018-10-03T05:57:01.212Z,97502.20
2018-10-03T05:59:29.508Z,97510.94
2018-10-03T06:01:57.815Z,97514.81
2018-10-03T06:04:26.095Z,97515.55
2018-10-03T06:06:54.407Z,97526.89
2018-10-03T06:09:22.687Z,97544.20
2018-10-03T06:11:51.019Z,97542.35
2018-10-03T06:14:19.300Z,97546.03
2018-10-03T06:16:47.604Z,97540.85
2018-10-03T06:19:15.887Z,97549.98
2018-10-03T06:21:44.215Z,97553.94
2018-10-03T06:24:12.491Z,97561.39
2018-10-03T06:26:41.203Z,97556.00
2018-10-03T06:29:09.871Z,97565.50
2018-10-03T06:31:38.175Z,97568.56
2018-10-03T06:34:06.492Z,97573.34
2018-10-03T06:36:34.767Z,97574.30
2018-10-03T06:39:03.236Z,97578.84
2018-10-03T06:41:31.519Z,97575.31
2018-10-03T06:43:59.878Z,97580.76
2018-10-03T06:46:28.156Z,97571.78
2018-10-03T06:48:56.878Z,97570.18
2018-10-03T06:51:25.163Z,97570.91
2018-10-03T06:53:53.487Z,97570.80
2018-10-03T06:56:21.779Z,97571.84
2018-10-03T06:58:50.091Z,97576.98
2018-10-03T07:01:18.383Z,97588.30
2018-10-03T07:03:46.676Z,97593.84
2018-10-03T07:06:15.467Z,97593.98
2018-10-03T07:08:44.227Z,97590.59
2018-10-03T07:11:12.612Z,97602.78
2018-10-03T07:13:40.967Z,97613.58
2018-10-03T07:16:09.263Z,97608.16
2018-10-03T07:18:37.755Z,97615.56
2018-10-03T07:21:06.170Z,97614.50
2018-10-03T07:23:35.223Z,97621.13
2018-10-03T07:26:03.514Z,97620.23
2018-10-03T07:28:31.823Z,97637.30
2018-10-03T07:31:00.103Z,97637.16
2018-10-03T07:33:28.408Z,97637.11
2018-10-03T07:35:56.679Z,97649.09
2018-10-03T07:38:25.043Z,97641.20
2018-10-03T07:40:53.312Z,97648.44
2018-10-03T07:43:21.624Z,97640.06
2018-10-03T07:45:49.915Z,97640.19
2018-10-03T07:48:18.215Z,97647.59
2018-10-03T07:50:46.495Z,97650.56
2018-10-03T07:53:14.788Z,97651.14
2018-10-03T07:55:43.070Z,97647.06
2018-10-03T07:58:11.380Z,97658.03
2018-10-03T08:00:39.668Z,97662.64
2018-10-03T08:03:14.123Z,97663.06
2018-10-03T08:05:42.419Z,97664.80
2018-10-03T08:08:10.725Z,97662.80
2018-10-03T08:10:39.707Z,97676.16
2018-10-03T08:13:08.127Z,97693.30
2018-10-03T08:15:36.594Z,97697.78
2018-10-03T08:18:04.960Z,97697.14
2018-10-03T08:20:33.311Z,97692.23
2018-10-03T08:23:01.632Z,97701.27
2018-10-03T08:25:29.915Z,97699.94
2018-10-03T08:27:58.206Z,97698.08
2018-10-03T08:30:26.487Z,97691.87
2018-10-03T08:32:54.877Z,97699.28
2018-10-03T08:35:23.103Z,97705.86
2018-10-03T08:37:51.418Z,97707.51
2018-10-03T08:40:19.724Z,97709.23
2018-10-03T08:42:48.055Z,97708.17
2018-10-03T08:45:16.339Z,97718.39
2018-10-03T08:47:44.659Z,97713.35
2018-10-03T08:50:13.512Z,97728.55
2018-10-03T08:52:41.835Z,97712.13
2018-10-03T08:55:10.115Z,97708.88
2018-10-03T08:57:40.088Z,97720.64
2018-10-03T09:00:08.940Z,97719.70
2018-10-03T09:02:37.216Z,97722.41
2018-10-03T09:05:05.616Z,97721.08
2018-10-03T09:07:33.927Z,97728.39
2018-10-03T09:10:02.215Z,97729.92
2018-10-03T09:12:30.508Z,97740.70
2018-10-03T09:14:58.819Z,97737.33
2018-10-03T09:17:27.123Z,97738.28
2018-10-03T09:19:55.427Z,97732.33
2018-10-03T09:22:23.715Z,97739.77
2018-10-03T09:24:52.131Z,97742.66
2018-10-03T09:27:20.428Z,97744.20
2018-10-03T09:29:48.767Z,97753.33
2018-10-03T09:32:17.093Z,97755.66
2018-10-03T09:34:45.423Z,97760.38
2018-10-03T09:37:13.728Z,97770.91
2018-10-03T09:39:42.060Z,97766.61
2018-10-03T09:42:10.359Z,97756.92
2018-10-03T09:44:38.724Z,97764.91
2018-10-03T09:47:07.135Z,97763.05
2018-10-03T09:49:35.507Z,97768.77
2018-10-03T09:52:03.985Z,97789.05
2018-10-03T09:54:32.310Z,97781.36
2018-10-03T09:57:00.611Z,97787.34
2018-10-03T09:59:28.912Z,97775.80
2018-10-03T10:01:57.235Z,97780.80
2018-10-03T10:04:25.555Z,97774.28
2018-10-03T10:06:53.855Z,97766.24
2018-10-03T10:09:22.587Z,97773.14
2018-10-03T10:11:50.899Z,97761.55
2018-10-03T10:14:19.227Z,97761.43
2018-10-03T10:16:47.580Z,97760.30
2018-10-03T10:19:15.915Z,97766.13
2018-10-03T10:21:44.260Z,97774.33
2018-10-03T10:24:12.572Z,97771.59
2018-10-03T10:26:40.963Z,97782.13
2018-10-03T10:29:09.275Z,97779.50
2018-10-03T10:31:37.591Z,97784.34
2018-10-03T10:34:05.907Z,97797.95
2018-10-03T10:36:34.207Z,97793.42
2018-10-03T10:39:02.543Z,97788.21
2018-10-03T10:41:31.516Z,97786.78
2018-10-03T10:43:59.656Z,97776.20
2018-10-03T10:46:27.966Z,97777.25
2018-10-03T10:48:56.275Z,97772.88
2018-10-03T10:51:24.581Z,97774.25
2018-10-03T10:53:52.891Z,97778.17
2018-10-03T10:56:21.187Z,97778.92
2018-10-03T10:58:49.500Z,97781.88
2018-10-03T11:01:17.775Z,97790.84
2018-10-03T11:03:46.086Z,97784.64
2018-10-03T11:06:14.422Z,97795.91
2018-10-03T11:08:42.737Z,97796.66
2018-10-03T11:11:11.035Z,97803.11
2018-10-03T11:13:39.335Z,97798.58
2018-10-03T11:16:08.211Z,97802.80
2018-10-03T11:18:36.519Z,97804.23
2018-10-03T11:21:04.851Z,97810.27
2018-10-03T11:23:33.182Z,97813.06
2018-10-03T11:26:01.516Z,97814.19
2018-10-03T11:28:29.807Z,97807.09
2018-10-03T11:30:58.175Z,97815.81
2018-10-03T11:33:26.472Z,97809.81
2018-10-03T11:35:54.874Z,97811.84
2018-10-03T11:38:23.225Z,97818.65
2018-10-03T11:40:51.496Z,97821.97
2018-10-03T11:43:19.796Z,97822.86
2018-10-03T11:45:48.145Z,97820.05
2018-10-03T11:48:16.427Z,97818.08
2018-10-03T11:50:44.828Z,97826.02
2018-10-03T11:53:13.055Z,97825.06
2018-10-03T11:55:41.388Z,97820.00
2018-10-03T11:58:09.662Z,97803.16
2018-10-03T12:00:37.979Z,97818.31
2018-10-03T12:03:07.065Z,97810.49
2018-10-03T12:05:35.303Z,97819.22
2018-10-03T12:08:03.608Z,97814.72
2018-10-03T12:10:31.899Z,97815.42
2018-10-03T12:13:00.287Z,97805.25
2018-10-03T12:15:28.574Z,97809.39
2018-10-03T12:17:56.948Z,97812.93
2018-10-03T12:20:25.247Z,97819.48
2018-10-03T12:22:53.575Z,97814.39
2018-10-03T12:25:22.018Z,97821.43
2018-10-03T12:27:50.271Z,97815.73
2018-10-03T12:30:18.593Z,97816.25
2018-10-03T12:32:46.916Z,97814.63
2018-10-03T12:35:19.366Z,97808.31
2018-10-03T12:37:48.509Z,97812.03
2018-10-03T12:40:16.847Z,97801.22
2018-10-03T12:42:45.251Z,97801.41
2018-10-03T12:45:13.633Z,97797.95
2018-10-03T12:47:41.863Z,97796.48
2018-10-03T12:50:10.188Z,97794.75
2018-10-03T12:52:38.515Z,97809.28
2018-10-03T12:55:06.935Z,97809.57
2018-10-03T12:57:35.319Z,97815.06
2018-10-03T13:00:03.693Z,97811.88
2018-10-03T13:02:32.098Z,97805.20
2018-10-03T13:05:00.388Z,97796.13
2018-10-03T13:07:29.111Z,97788.02
2018-10-03T13:09:57.451Z,97794.03
2018-10-03T13:12:25.774Z,97785.92
2018-10-03T13:14:54.135Z,97787.50
2018-10-03T13:17:24.100Z,97794.36
2018-10-03T13:19:52.688Z,97785.63
2018-10-03T13:22:21.500Z,97789.56
2018-10-03T13:24:49.795Z,97787.78
2018-10-03T13:27:18.591Z,97788.08
2018-10-03T13:29:46.920Z,97791.19
2018-10-03T13:32:15.411Z,97781.95
2018-10-03T13:34:43.716Z,97784.80
2018-10-03T13:37:12.011Z,97779.94
2018-10-03T13:39:40.743Z,97773.25
2018-10-03T13:42:09.078Z,97780.65
2018-10-03T13:44:37.451Z,97787.14
2018-10-03T13:47:05.783Z,97787.92
2018-10-03T13:49:34.095Z,97779.06
2018-10-03T13:52:02.483Z,97789.35
2018-10-03T13:54:30.803Z,97787.42
2018-10-03T13:56:59.155Z,97789.88
2018-10-03T13:59:27.596Z,97781.62
2018-10-03T14:01:55.997Z,97773.41
2018-10-03T14:04:24.283Z,97776.96
2018-10-03T14:06:52.583Z,97786.39
2018-10-03T14:09:21.572Z,97790.62
2018-10-03T14:11:49.875Z,97790.91
2018-10-03T14:14:18.181Z,97788.27
2018-10-03T14:16:46.489Z,97795.19
2018-10-03T14:19:14.797Z,97803.44
2018-10-03T14:21:43.122Z,97798.66
2018-10-03T14:24:11.483Z,97786.16
2018-10-03T14:26:39.940Z,97786.80
2018-10-03T14:29:08.467Z,97785.72
2018-10-03T14:31:36.760Z,97792.05
2018-10-03T14:34:05.136Z,97784.95
2018-10-03T14:36:33.455Z,97789.03
2018-10-03T14:39:01.849Z,97791.91
2018-10-03T14:41:30.151Z,97795.64
2018-10-03T14:43:58.487Z,97797.50
2018-10-03T14:46:26.796Z,97802.52
2018-10-03T14:48:55.343Z,97802.73
2018-10-03T14:51:23.656Z,97809.34
2018-10-03T14:53:51.967Z,97812.76
2018-10-03T14:56:20.299Z,97805.91
2018-10-03T14:58:48.683Z,97819.45
2018-10-03T15:01:16.935Z,97808.61
2018-10-03T15:03:45.222Z,97809.02
2018-10-03T15:06:13.596Z,97813.72
2018-10-03T15:08:41.907Z,97818.09
2018-10-03T15:11:10.282Z,97820.86
2018-10-03T15:13:38.831Z,97824.26
2018-10-03T15:16:07.795Z,97830.22
2018-10-03T15:18:36.894Z,97832.66
2018-10-03T15:21:06.268Z,97831.52
2018-10-03T15:23:36.339Z,97829.33
2018-10-03T15:26:04.703Z,97838.35
2018-10-03T15:28:33.003Z,97832.83
2018-10-03T15:31:01.323Z,97832.38
2018-10-03T15:33:29.626Z,97833.33
2018-10-03T15:35:57.966Z,97833.27
2018-10-03T15:38:26.257Z,97826.97
2018-10-03T15:40:54.699Z,97831.78
2018-10-03T15:43:23.047Z,97838.11
2018-10-03T15:45:51.395Z,97845.48
2018-10-03T15:48:19.865Z,97842.80
2018-10-03T15:50:48.103Z,97841.52
2018-10-03T15:53:16.402Z,97851.55
2018-10-03T15:55:44.875Z,97843.69
2018-10-03T15:58:13.155Z,97843.44
2018-10-03T16:00:41.467Z,97842.34
2018-10-03T16:03:10.215Z,97845.18
2018-10-03T16:05:38.871Z,97846.34
2018-10-03T16:08:07.240Z,97849.53
2018-10-03T16:10:35.711Z,97845.31
2018-10-03T16:13:04.235Z,97843.98
2018-10-03T16:15:32.624Z,97849.66
2018-10-03T16:18:01.340Z,97849.41
2018-10-03T16:20:29.671Z,97842.09
2018-10-03T16:22:58.092Z,97846.13
2018-10-03T16:25:26.431Z,97859.87
2018-10-03T16:27:54.783Z,97857.84
2018-10-03T16:30:23.175Z,97858.65
2018-10-03T16:32:51.663Z,97863.88
2018-10-03T16:35:19.984Z,97856.22
2018-10-03T16:37:48.303Z,97862.39
2018-10-03T16:40:16.623Z,97853.39
2018-10-03T16:42:44.946Z,97854.21
2018-10-03T16:45:13.231Z,97864.84
2018-10-03T16:47:41.583Z,97864.33
2018-10-03T16:50:09.878Z,97866.87
2018-10-03T16:52:38.485Z,97873.38
2018-10-03T16:55:06.815Z,97877.64
2018-10-03T16:57:35.169Z,97881.91
2018-10-03T17:00:03.524Z,97882.92
2018-10-03T17:02:31.902Z,97890.56
2018-10-03T17:05:00.203Z,97890.92
2018-10-03T17:07:28.568Z,97890.78
2018-10-03T17:09:56.900Z,97884.89
2018-10-03T17:12:25.316Z,97897.29
2018-10-03T17:14:53.641Z,97901.98
2018-10-03T17:17:22.236Z,97901.89
2018-10-03T17:19:50.531Z,97904.81
2018-10-03T17:22:18.861Z,97910.77
2018-10-03T17:24:47.211Z,97915.09
2018-10-03T17:27:15.563Z,97920.87
2018-10-03T17:29:43.868Z,97929.23
2018-10-03T17:32:12.504Z,97935.95
2018-10-03T17:34:40.847Z,97936.16
2018-10-03T17:37:09.209Z,97944.08
2018-10-03T17:39:37.508Z,97942.92
2018-10-03T17:42:05.911Z,97937.23
2018-10-03T17:44:34.207Z,97948.29
2018-10-03T17:47:02.894Z,97954.05
2018-10-03T17:49:31.183Z,97949.07
2018-10-03T17:51:59.507Z,97956.97
2018-10-03T17:54:27.948Z,97960.71
2018-10-03T17:56:56.300Z,97950.36
2018-10-03T17:59:25.986Z,97961.45
2018-10-03T18:01:56.255Z,97963.38
2018-10-03T18:04:24.564Z,97959.92
2018-10-03T18:06:52.868Z,97967.95
2018-10-03T18:09:21.227Z,97971.50
2018-10-03T18:11:49.479Z,97974.03
2018-10-03T18:14:17.800Z,97973.56
2018-10-03T18:16:46.083Z,97976.38
2018-10-03T18:19:14.416Z,97974.02
2018-10-03T18:21:42.747Z,97978.59
2018-10-03T18:24:11.119Z,97979.48
2018-10-03T18:26:39.402Z,97984.05
2018-10-03T18:29:07.697Z,97987.06
2018-10-03T18:31:35.987Z,97984.22
2018-10-03T18:34:04.310Z,97985.22
2018-10-03T18:36:32.588Z,97990.25
2018-10-03T18:39:00.908Z,97992.81
2018-10-03T18:41:29.316Z,97997.63
2018-10-03T18:43:57.659Z,97998.16
2018-10-03T18:46:26.055Z,98005.58
2018-10-03T18:48:54.399Z,98009.41
2018-10-03T18:51:22.719Z,98005.42
2018-10-03T18:53:51.092Z,98006.36
2018-10-03T18:56:19.448Z,98010.59
2018-10-03T18:58:47.747Z,98010.65
2018-10-03T19:01:16.049Z,98017.13
2018-10-03T19:03:44.438Z,98008.50
2018-10-03T19:06:13.313Z,98015.41
2018-10-03T19:08:41.590Z,98016.23
2018-10-03T19:11:09.937Z,98010.90
2018-10-03T19:13:38.272Z,98014.51
2018-10-03T19:16:06.559Z,98013.88
2018-10-03T19:18:35.404Z,98015.45
2018-10-03T19:21:03.809Z,98019.56
2018-10-03T19:23:32.132Z,98020.66
2018-10-03T19:26:00.464Z,98021.48
2018-10-03T19:28:28.797Z,98021.48
2018-10-03T19:30:57.146Z,98016.55
2018-10-03T19:33:25.531Z,98016.86
2018-10-03T19:35:54.251Z,98015.55
2018-10-03T19:38:23.008Z,98014.83
2018-10-03T19:40:51.379Z,98013.70
2018-10-03T19:43:19.711Z,98015.55
2018-10-03T19:45:48.075Z,98017.69
2018-10-03T19:48:16.554Z,98009.61
2018-10-03T19:50:45.144Z,98016.56
2018-10-03T19:53:13.920Z,98013.27
2018-10-03T19:55:42.435Z,98011.63
2018-10-03T19:58:10.738Z,98017.50
2018-10-03T20:00:39.072Z,98022.60
2018-10-03T20:03:07.779Z,98024.56
2018-10-03T20:05:36.075Z,98023.02
2018-10-03T20:08:04.387Z,98032.16
2018-10-03T20:10:32.768Z,98023.74
2018-10-03T20:13:01.072Z,98022.81
2018-10-03T20:15:29.378Z,98023.75
2018-10-03T20:17:57.731Z,98019.02
2018-10-03T20:20:26.043Z,98021.17
2018-10-03T20:22:54.356Z,98026.39
2018-10-03T20:25:22.801Z,98029.78
2018-10-03T20:27:51.155Z,98024.42
2018-10-03T20:30:19.439Z,98028.33
2018-10-03T20:32:47.799Z,98033.86
2018-10-03T20:35:16.124Z,98034.48
2018-10-03T20:37:44.435Z,98039.28
2018-10-03T20:40:12.743Z,98033.13
2018-10-03T20:42:41.074Z,98033.52
2018-10-03T20:45:09.463Z,98031.91
2018-10-03T20:47:38.180Z,98038.02
2018-10-03T20:50:06.508Z,98037.23
2018-10-03T20:52:34.896Z,98026.71
2018-10-03T20:55:03.227Z,98027.34
2018-10-03T20:57:31.563Z,98023.98
2018-10-03T20:59:59.842Z,98021.70
2018-10-03T21:02:28.143Z,98021.33
2018-10-03T21:04:57.509Z,98022.91
2018-10-03T21:07:25.811Z,98013.91
2018-10-03T21:09:54.159Z,98016.67
2018-10-03T21:12:22.483Z,98014.38
2018-10-03T21:14:50.807Z,98014.07
2018-10-03T21:17:19.248Z,98009.28
2018-10-03T21:19:47.771Z,98005.86
2018-10-03T21:22:16.051Z,98004.23
2018-10-03T21:24:44.355Z,98007.59
2018-10-03T21:27:12.671Z,98010.35
2018-10-03T21:29:43.904Z,98010.73
2018-10-03T21:32:12.648Z,98013.02
2018-10-03T21:34:41.246Z,98008.87
2018-10-03T21:37:09.626Z,98006.55
2018-10-03T21:39:37.935Z,98000.66
2018-10-03T21:42:06.320Z,97996.06
2018-10-03T21:44:34.647Z,97995.20
2018-10-03T21:47:02.941Z,97997.67
2018-10-03T21:49:31.259Z,98000.30
2018-10-03T21:51:59.564Z,98007.84
2018-10-03T21:54:27.875Z,97999.36
2018-10-03T21:56:56.336Z,98001.05
2018-10-03T21:59:24.806Z,98005.36
2018-10-03T22:01:53.019Z,98002.06
2018-10-03T22:04:21.331Z,98002.55
2018-10-03T22:06:50.051Z,98006.60
2018-10-03T22:09:18.390Z,98003.08
2018-10-03T22:11:46.687Z,98003.48
2018-10-03T22:14:14.979Z,98004.45
2018-10-03T22:16:43.276Z,98002.30
2018-10-03T22:19:11.963Z,98007.09
2018-10-03T22:21:40.243Z,98004.58
2018-10-03T22:24:08.596Z,98013.39
2018-10-03T22:26:36.907Z,98013.12
2018-10-03T22:29:05.227Z,98009.08
2018-10-03T22:31:33.520Z,98014.27
2018-10-03T22:34:01.891Z,98011.63
2018-10-03T22:36:30.215Z,98014.61
2018-10-03T22:38:58.503Z,98011.31
2018-10-03T22:41:26.815Z,98008.34
2018-10-03T22:43:55.153Z,98012.73
2018-10-03T22:46:23.419Z,98012.91
2018-10-03T22:48:51.737Z,98013.92
2018-10-03T22:51:20.075Z,98016.08
2018-10-03T22:53:48.475Z,98026.03
2018-10-03T22:56:16.764Z,98023.13
2018-10-03T22:58:45.111Z,98027.17
2018-10-03T23:01:13.399Z,98023.66
2018-10-03T23:03:41.714Z,98031.80
2018-10-03T23:06:10.054Z,98037.44
2018-10-03T23:08:38.539Z,98035.63
2018-10-03T23:11:07.199Z,98038.34
2018-10-03T23:13:35.592Z,98033.16
2018-10-03T23:16:03.892Z,98036.96
2018-10-03T23:18:32.263Z,98039.54
2018-10-03T23:21:00.576Z,98039.30
2018-10-03T23:23:28.947Z,98040.33
2018-10-03T23:25:57.271Z,98039.44
2018-10-03T23:28:25.559Z,98036.36
2018-10-03T23:30:53.881Z,98039.26
2018-10-03T23:33:22.175Z,98041.09
2018-10-03T23:35:50.459Z,98039.39
2018-10-03T23:38:18.779Z,98037.48
2018-10-03T23:40:47.087Z,98045.54
2018-10-03T23:43:15.703Z,98046.23
2018-10-03T23:45:43.972Z,98049.37
2018-10-03T23:48:12.267Z,98047.88
2018-10-03T23:50:40.579Z,98051.05
2018-10-03T23:53:08.896Z,98053.06
2018-10-03T23:55:37.195Z,98059.14
2018-10-03T23:58:05.503Z,98056.19
